sensor_id;sensor_type;location;lat;lon;timestamp;pressure;altitude;pressure_sealevel;temperature;humidity
35023;BME280;21214;44.912;8.204;2023-04-30T00:01:23;99459.16;;;16.63;100.00
35023;BME280;21214;44.912;8.204;2023-04-30T00:03:49;99457.13;;;16.65;100.00
35023;BME280;21214;44.912;8.204;2023-04-30T00:06:14;99451.81;;;16.65;100.00
35023;BME280;21214;44.912;8.204;2023-04-30T00:08:40;99456.75;;;16.68;100.00
35023;BME280;21214;44.912;8.204;2023-04-30T00:11:05;99450.41;;;16.69;100.00
35023;BME280;21214;44.912;8.204;2023-04-30T00:13:30;99442.41;;;16.69;100.00
35023;BME280;21214;44.912;8.204;2023-04-30T00:15:56;99439.75;;;16.69;100.00
35023;BME280;21214;44.912;8.204;2023-04-30T00:18:22;99441.78;;;16.67;100.00
35023;BME280;21214;44.912;8.204;2023-04-30T00:20:48;99445.47;;;16.66;100.00
35023;BME280;21214;44.912;8.204;2023-04-30T00:23:16;99435.44;;;16.68;100.00
35023;BME280;21214;44.912;8.204;2023-04-30T00:25:41;99437.09;;;16.69;100.00
35023;BME280;21214;44.912;8.204;2023-04-30T00:28:06;99438.75;;;16.70;100.00
35023;BME280;21214;44.912;8.204;2023-04-30T00:30:32;99442.06;;;16.72;100.00
35023;BME280;21214;44.912;8.204;2023-04-30T00:32:57;99446.91;;;16.69;100.00
35023;BME280;21214;44.912;8.204;2023-04-30T00:35:23;99442.06;;;16.72;100.00
35023;BME280;21214;44.912;8.204;2023-04-30T00:37:48;99447.19;;;16.74;100.00
35023;BME280;21214;44.912;8.204;2023-04-30T00:40:13;99445.53;;;16.73;100.00
35023;BME280;21214;44.912;8.204;2023-04-30T00:42:39;99440.84;;;16.75;100.00
35023;BME280;21214;44.912;8.204;2023-04-30T00:45:04;99447.00;;;16.75;100.00
35023;BME280;21214;44.912;8.204;2023-04-30T00:47:30;99442.69;;;16.74;100.00
35023;BME280;21214;44.912;8.204;2023-04-30T00:49:56;99438.66;;;16.78;100.00
35023;BME280;21214;44.912;8.204;2023-04-30T00:52:21;99439.28;;;16.81;100.00
35023;BME280;21214;44.912;8.204;2023-04-30T00:54:47;99429.47;;;16.81;100.00
35023;BME280;21214;44.912;8.204;2023-04-30T00:57:12;99430.38;;;16.73;100.00
35023;BME280;21214;44.912;8.204;2023-04-30T00:59:38;99423.69;;;16.77;100.00
35023;BME280;21214;44.912;8.204;2023-04-30T01:02:03;99424.03;;;16.74;100.00
35023;BME280;21214;44.912;8.204;2023-04-30T01:04:29;99426.81;;;16.66;100.00
35023;BME280;21214;44.912;8.204;2023-04-30T01:06:54;99426.81;;;16.66;100.00
35023;BME280;21214;44.912;8.204;2023-04-30T01:09:20;99433.78;;;16.67;100.00
35023;BME280;21214;44.912;8.204;2023-04-30T01:15:12;99435.16;;;16.63;100.00
35023;BME280;21214;44.912;8.204;2023-04-30T01:17:40;99430.84;;;16.62;100.00
35023;BME280;21214;44.912;8.204;2023-04-30T01:19:58;99434.50;;;16.61;100.00
35023;BME280;21214;44.912;8.204;2023-04-30T01:30:21;99434.78;;;16.52;100.00
35023;BME280;21214;44.912;8.204;2023-04-30T01:32:47;99432.28;;;16.50;100.00
35023;BME280;21214;44.912;8.204;2023-04-30T01:35:12;99435.97;;;16.49;100.00
35023;BME280;21214;44.912;8.204;2023-04-30T01:43:04;99442.19;;;16.56;100.00
35023;BME280;21214;44.912;8.204;2023-04-30T01:45:41;99443.41;;;16.54;100.00
35023;BME280;21214;44.912;8.204;2023-04-30T01:50:40;99444.59;;;16.51;100.00
35023;BME280;21214;44.912;8.204;2023-04-30T01:53:09;99445.59;;;16.50;100.00
35023;BME280;21214;44.912;8.204;2023-04-30T01:55:42;99449.91;;;16.51;100.00
35023;BME280;21214;44.912;8.204;2023-04-30T01:58:09;99444.59;;;16.51;100.00
35023;BME280;21214;44.912;8.204;2023-04-30T02:00:36;99442.94;;;16.50;100.00
35023;BME280;21214;44.912;8.204;2023-04-30T02:03:02;99449.09;;;16.51;100.00
35023;BME280;21214;44.912;8.204;2023-04-30T02:05:28;99449.81;;;16.45;100.00
35023;BME280;21214;44.912;8.204;2023-04-30T02:07:54;99444.50;;;16.45;100.00
35023;BME280;21214;44.912;8.204;2023-04-30T02:10:20;99441.00;;;16.44;100.00
35023;BME280;21214;44.912;8.204;2023-04-30T02:12:46;99435.06;;;16.42;100.00
35023;BME280;21214;44.912;8.204;2023-04-30T02:15:12;99437.50;;;16.44;100.00
35023;BME280;21214;44.912;8.204;2023-04-30T02:17:39;99439.38;;;16.43;100.00
35023;BME280;21214;44.912;8.204;2023-04-30T02:20:05;99437.06;;;16.40;100.00
35023;BME280;21214;44.912;8.204;2023-04-30T02:22:31;99444.03;;;16.41;100.00
35023;BME280;21214;44.912;8.204;2023-04-30T02:24:56;99445.72;;;16.42;100.00
35023;BME280;21214;44.912;8.204;2023-04-30T02:27:22;99440.72;;;16.39;100.00
35023;BME280;21214;44.912;8.204;2023-04-30T02:29:48;99436.72;;;16.43;100.00
35023;BME280;21214;44.912;8.204;2023-04-30T02:32:13;99443.88;;;16.43;100.00
35023;BME280;21214;44.912;8.204;2023-04-30T02:34:39;99440.72;;;16.39;100.00
35023;BME280;21214;44.912;8.204;2023-04-30T02:37:05;99435.41;;;16.39;100.00
35023;BME280;21214;44.912;8.204;2023-04-30T02:39:31;99448.91;;;16.37;100.00
35023;BME280;21214;44.912;8.204;2023-04-30T02:41:56;99447.72;;;16.40;100.00
35023;BME280;21214;44.912;8.204;2023-04-30T02:44:21;99445.72;;;16.42;100.00
35023;BME280;21214;44.912;8.204;2023-04-30T02:46:47;99445.72;;;16.42;100.00
35023;BME280;21214;44.912;8.204;2023-04-30T02:49:12;99443.22;;;16.41;100.00
35023;BME280;21214;44.912;8.204;2023-04-30T02:51:38;99447.38;;;16.43;100.00
35023;BME280;21214;44.912;8.204;2023-04-30T02:54:03;99445.72;;;16.42;100.00
35023;BME280;21214;44.912;8.204;2023-04-30T02:56:28;99448.53;;;16.41;100.00
35023;BME280;21214;44.912;8.204;2023-04-30T02:58:54;99437.06;;;16.40;100.00
35023;BME280;21214;44.912;8.204;2023-04-30T03:01:19;99442.38;;;16.40;100.00
35023;BME280;21214;44.912;8.204;2023-04-30T03:03:44;99440.72;;;16.39;100.00
35023;BME280;21214;44.912;8.204;2023-04-30T03:06:10;99439.72;;;16.40;100.00
35023;BME280;21214;44.912;8.204;2023-04-30T03:08:35;99437.72;;;16.42;100.00
35023;BME280;21214;44.912;8.204;2023-04-30T03:11:00;99437.50;;;16.44;100.00
35023;BME280;21214;44.912;8.204;2023-04-30T03:13:26;99424.41;;;16.42;100.00
35023;BME280;21214;44.912;8.204;2023-04-30T03:15:57;99420.91;;;16.42;100.00
35023;BME280;21214;44.912;8.204;2023-04-30T03:18:23;99421.75;;;16.42;100.00
35023;BME280;21214;44.912;8.204;2023-04-30T03:20:49;99422.56;;;16.43;100.00
35023;BME280;21214;44.912;8.204;2023-04-30T03:23:14;99426.06;;;16.43;100.00
35023;BME280;21214;44.912;8.204;2023-04-30T03:25:39;99427.06;;;16.42;100.00
35023;BME280;21214;44.912;8.204;2023-04-30T03:28:05;99428.41;;;16.38;100.00
35023;BME280;21214;44.912;8.204;2023-04-30T03:30:30;99430.06;;;16.39;100.00
35023;BME280;21214;44.912;8.204;2023-04-30T03:32:56;99425.47;;;16.33;100.00
35023;BME280;21214;44.912;8.204;2023-04-30T03:35:21;99423.66;;;16.19;100.00
35023;BME280;21214;44.912;8.204;2023-04-30T03:37:46;99422.66;;;16.20;100.00
35023;BME280;21214;44.912;8.204;2023-04-30T03:40:12;99423.28;;;16.22;100.00
35023;BME280;21214;44.912;8.204;2023-04-30T03:42:37;99418.13;;;16.20;100.00
35023;BME280;21214;44.912;8.204;2023-04-30T03:45:02;99422.28;;;16.23;100.00
35023;BME280;21214;44.912;8.204;2023-04-30T03:47:28;99421.25;;;16.24;100.00
35023;BME280;21214;44.912;8.204;2023-04-30T03:49:53;99424.56;;;16.26;100.00
35023;BME280;21214;44.912;8.204;2023-04-30T03:52:20;99410.22;;;16.27;100.00
35023;BME280;21214;44.912;8.204;2023-04-30T03:54:47;99408.97;;;16.23;100.00
35023;BME280;21214;44.912;8.204;2023-04-30T03:57:12;99407.28;;;16.22;100.00
35023;BME280;21214;44.912;8.204;2023-04-30T03:59:38;99419.97;;;16.20;100.00
35023;BME280;21214;44.912;8.204;2023-04-30T04:02:04;99415.84;;;16.17;100.00
35023;BME280;21214;44.912;8.204;2023-04-30T04:04:30;99422.00;;;16.18;100.00
35023;BME280;21214;44.912;8.204;2023-04-30T04:06:56;99425.31;;;16.20;100.00
35023;BME280;21214;44.912;8.204;2023-04-30T04:09:22;99431.44;;;16.20;100.00
35023;BME280;21214;44.912;8.204;2023-04-30T04:11:47;99422.00;;;16.18;100.00
35023;BME280;21214;44.912;8.204;2023-04-30T04:14:13;99424.66;;;16.18;100.00
35023;BME280;21214;44.912;8.204;2023-04-30T04:16:38;99429.81;;;16.19;100.00
35023;BME280;21214;44.912;8.204;2023-04-30T04:19:03;99436.31;;;16.17;100.00
35023;BME280;21214;44.912;8.204;2023-04-30T04:21:30;99436.31;;;16.17;100.00
35023;BME280;21214;44.912;8.204;2023-04-30T04:23:56;99430.97;;;16.17;100.00
35023;BME280;21214;44.912;8.204;2023-04-30T04:26:21;99435.97;;;16.20;100.00
35023;BME280;21214;44.912;8.204;2023-04-30T04:28:48;99432.25;;;16.21;100.00
35023;BME280;21214;44.912;8.204;2023-04-30T04:31:14;99424.94;;;16.23;100.00
35023;BME280;21214;44.912;8.204;2023-04-30T04:33:39;99426.59;;;16.24;100.00
35023;BME280;21214;44.912;8.204;2023-04-30T04:36:05;99426.22;;;16.27;100.00
35023;BME280;21214;44.912;8.204;2023-04-30T04:38:30;99425.84;;;16.30;100.00
35023;BME280;21214;44.912;8.204;2023-04-30T04:40:56;99434.47;;;16.32;100.00
35023;BME280;21214;44.912;8.204;2023-04-30T04:43:22;99425.47;;;16.33;100.00
35023;BME280;21214;44.912;8.204;2023-04-30T04:45:47;99422.19;;;16.31;100.00
35023;BME280;21214;44.912;8.204;2023-04-30T04:48:13;99430.63;;;16.34;100.00
35023;BME280;21214;44.912;8.204;2023-04-30T04:50:39;99437.44;;;16.37;100.00
35023;BME280;21214;44.912;8.204;2023-04-30T04:53:05;99439.72;;;16.40;100.00
35023;BME280;21214;44.912;8.204;2023-04-30T04:55:30;99437.44;;;16.37;100.00
35023;BME280;21214;44.912;8.204;2023-04-30T04:57:56;99440.72;;;16.39;100.00
35023;BME280;21214;44.912;8.204;2023-04-30T05:00:21;99433.41;;;16.41;100.00
35023;BME280;21214;44.912;8.204;2023-04-30T05:02:47;99442.84;;;16.44;100.00
35023;BME280;21214;44.912;8.204;2023-04-30T05:05:13;99449.00;;;16.44;100.00
35023;BME280;21214;44.912;8.204;2023-04-30T05:07:38;99447.81;;;16.47;100.00
35023;BME280;21214;44.912;8.204;2023-04-30T05:10:04;99454.63;;;16.49;100.00
35023;BME280;21214;44.912;8.204;2023-04-30T05:12:29;99454.25;;;16.52;100.00
35023;BME280;21214;44.912;8.204;2023-04-30T05:14:55;99460.22;;;16.54;100.00
35023;BME280;21214;44.912;8.204;2023-04-30T05:17:20;99467.56;;;16.52;100.00
35023;BME280;21214;44.912;8.204;2023-04-30T05:19:45;99469.66;;;16.57;100.00
35023;BME280;21214;44.912;8.204;2023-04-30T05:22:13;99468.53;;;16.59;100.00
35023;BME280;21214;44.912;8.204;2023-04-30T05:24:38;99461.97;;;16.62;100.00
35023;BME280;21214;44.912;8.204;2023-04-30T05:27:04;99469.81;;;16.63;100.00
35023;BME280;21214;44.912;8.204;2023-04-30T05:29:29;99476.41;;;16.67;100.00
35023;BME280;21214;44.912;8.204;2023-04-30T05:31:55;99474.78;;;16.66;100.00
35023;BME280;21214;44.912;8.204;2023-04-30T05:34:21;99479.28;;;16.66;100.00
35023;BME280;21214;44.912;8.204;2023-04-30T05:36:46;99477.22;;;16.68;100.00
35023;BME280;21214;44.912;8.204;2023-04-30T05:39:11;99481.38;;;16.70;100.00
35023;BME280;21214;44.912;8.204;2023-04-30T05:41:37;99481.00;;;16.73;100.00
35023;BME280;21214;44.912;8.204;2023-04-30T05:44:02;99478.16;;;16.75;100.00
35023;BME280;21214;44.912;8.204;2023-04-30T05:46:29;99480.38;;;16.71;100.00
35023;BME280;21214;44.912;8.204;2023-04-30T05:48:54;99479.38;;;16.72;100.00
35023;BME280;21214;44.912;8.204;2023-04-30T05:51:19;99486.34;;;16.73;100.00
35023;BME280;21214;44.912;8.204;2023-04-30T05:53:45;99477.34;;;16.74;100.00
35023;BME280;21214;44.912;8.204;2023-04-30T05:56:10;99477.81;;;16.78;100.00
35023;BME280;21214;44.912;8.204;2023-04-30T05:58:37;99476.59;;;16.81;100.00
35023;BME280;21214;44.912;8.204;2023-04-30T06:01:04;99483.22;;;16.85;100.00
35023;BME280;21214;44.912;8.204;2023-04-30T06:03:29;99474.84;;;16.88;100.00
35023;BME280;21214;44.912;8.204;2023-04-30T06:05:55;99475.13;;;16.93;100.00
35023;BME280;21214;44.912;8.204;2023-04-30T06:08:20;99478.78;;;16.92;100.00
35023;BME280;21214;44.912;8.204;2023-04-30T06:10:45;99480.44;;;16.93;100.00
35023;BME280;21214;44.912;8.204;2023-04-30T06:13:11;99475.13;;;16.93;100.00
35023;BME280;21214;44.912;8.204;2023-04-30T06:15:36;99473.47;;;16.92;100.00
35023;BME280;21214;44.912;8.204;2023-04-30T06:18:02;99471.06;;;16.97;100.00
35023;BME280;21214;44.912;8.204;2023-04-30T06:20:27;99474.38;;;16.99;100.00
35023;BME280;21214;44.912;8.204;2023-04-30T06:22:53;99472.72;;;16.98;100.00
35023;BME280;21214;44.912;8.204;2023-04-30T06:25:18;99471.97;;;17.04;100.00
35023;BME280;21214;44.912;8.204;2023-04-30T06:27:45;99478.97;;;17.05;100.00
35023;BME280;21214;44.912;8.204;2023-04-30T06:30:10;99474.91;;;17.09;100.00
35023;BME280;21214;44.912;8.204;2023-04-30T06:32:35;99481.53;;;17.13;100.00
35023;BME280;21214;44.912;8.204;2023-04-30T06:35:01;99477.47;;;17.17;100.00
35023;BME280;21214;44.912;8.204;2023-04-30T06:37:26;99477.88;;;17.14;100.00
35023;BME280;21214;44.912;8.204;2023-04-30T06:39:52;99473.16;;;17.16;100.00
35023;BME280;21214;44.912;8.204;2023-04-30T06:42:17;99477.09;;;17.20;100.00
35023;BME280;21214;44.912;8.204;2023-04-30T06:44:42;99484.09;;;17.21;100.00
35023;BME280;21214;44.912;8.204;2023-04-30T06:47:08;99478.00;;;17.27;100.00
35023;BME280;21214;44.912;8.204;2023-04-30T06:49:33;99478.47;;;17.31;100.00
35023;BME280;21214;44.912;8.204;2023-04-30T06:51:58;99476.69;;;17.38;100.00
35023;BME280;21214;44.912;8.204;2023-04-30T06:54:24;99481.47;;;17.42;100.00
35023;BME280;21214;44.912;8.204;2023-04-30T06:56:51;99483.13;;;17.43;100.00
35023;BME280;21214;44.912;8.204;2023-04-30T06:59:16;99479.06;;;17.47;100.00
35023;BME280;21214;44.912;8.204;2023-04-30T07:01:42;99479.06;;;17.47;100.00
35023;BME280;21214;44.912;8.204;2023-04-30T07:04:07;99486.41;;;17.45;100.00
35023;BME280;21214;44.912;8.204;2023-04-30T07:06:32;99494.16;;;17.40;100.00
35023;BME280;21214;44.912;8.204;2023-04-30T07:08:58;99483.50;;;17.40;100.00
35023;BME280;21214;44.912;8.204;2023-04-30T07:11:23;99484.41;;;17.47;100.00
35023;BME280;21214;44.912;8.204;2023-04-30T07:13:48;99494.06;;;17.48;100.00
35023;BME280;21214;44.912;8.204;2023-04-30T07:16:14;99487.31;;;17.52;100.00
35023;BME280;21214;44.912;8.204;2023-04-30T07:18:41;99496.34;;;17.51;100.00
35023;BME280;21214;44.912;8.204;2023-04-30T07:21:06;99498.44;;;17.56;100.00
35023;BME280;21214;44.912;8.204;2023-04-30T07:23:33;99500.59;;;17.61;100.00
35023;BME280;21214;44.912;8.204;2023-04-30T07:25:58;99497.41;;;17.72;100.00
35023;BME280;21214;44.912;8.204;2023-04-30T07:28:23;99499.69;;;17.75;100.00
35023;BME280;21214;44.912;8.204;2023-04-30T07:30:48;99503.66;;;17.79;100.00
35023;BME280;21214;44.912;8.204;2023-04-30T07:33:14;99500.41;;;17.83;100.00
35023;BME280;21214;44.912;8.204;2023-04-30T07:35:39;99504.91;;;17.83;100.00
35023;BME280;21214;44.912;8.204;2023-04-30T07:38:05;99502.88;;;17.85;100.00
35023;BME280;21214;44.912;8.204;2023-04-30T07:40:30;99500.09;;;17.93;100.00
35023;BME280;21214;44.912;8.204;2023-04-30T07:42:56;99502.50;;;17.88;100.00
35023;BME280;21214;44.912;8.204;2023-04-30T07:45:21;99510.63;;;17.80;100.00
35023;BME280;21214;44.912;8.204;2023-04-30T07:47:47;99509.75;;;17.73;100.00
35023;BME280;21214;44.912;8.204;2023-04-30T07:50:13;99507.34;;;17.78;100.00
35023;BME280;21214;44.912;8.204;2023-04-30T07:52:39;99501.00;;;17.79;100.00
35023;BME280;21214;44.912;8.204;2023-04-30T07:55:05;99511.09;;;17.83;100.00
35023;BME280;21214;44.912;8.204;2023-04-30T07:57:30;99511.16;;;17.90;100.00
35023;BME280;21214;44.912;8.204;2023-04-30T07:59:55;99514.06;;;17.95;100.00
35023;BME280;21214;44.912;8.204;2023-04-30T08:02:21;99520.31;;;18.02;100.00
35023;BME280;21214;44.912;8.204;2023-04-30T08:04:47;99532.75;;;18.16;100.00
35023;BME280;21214;44.912;8.204;2023-04-30T08:07:12;99528.28;;;18.23;100.00
35023;BME280;21214;44.912;8.204;2023-04-30T08:09:40;99539.31;;;18.14;100.00
35023;BME280;21214;44.912;8.204;2023-04-30T08:12:05;99534.81;;;18.14;100.00
35023;BME280;21214;44.912;8.204;2023-04-30T08:14:31;99541.00;;;18.21;100.00
35023;BME280;21214;44.912;8.204;2023-04-30T08:16:56;99537.81;;;18.32;100.00
35023;BME280;21214;44.912;8.204;2023-04-30T08:19:23;99537.03;;;18.38;100.00
35023;BME280;21214;44.912;8.204;2023-04-30T08:21:48;99544.69;;;18.41;100.00
35023;BME280;21214;44.912;8.204;2023-04-30T08:24:14;99544.16;;;18.53;100.00
35023;BME280;21214;44.912;8.204;2023-04-30T08:26:39;99540.97;;;18.64;100.00
35023;BME280;21214;44.912;8.204;2023-04-30T08:29:04;99552.91;;;18.68;100.00
35023;BME280;21214;44.912;8.204;2023-04-30T08:31:32;99553.69;;;18.62;100.00
35023;BME280;21214;44.912;8.204;2023-04-30T08:33:58;99558.78;;;18.57;100.00
35023;BME280;21214;44.912;8.204;2023-04-30T08:36:23;99560.09;;;18.61;100.00
35023;BME280;21214;44.912;8.204;2023-04-30T08:38:48;99564.91;;;18.72;100.00
35023;BME280;21214;44.912;8.204;2023-04-30T08:41:14;99567.75;;;18.70;100.00
35023;BME280;21214;44.912;8.204;2023-04-30T08:43:40;99562.00;;;18.73;100.00
35023;BME280;21214;44.912;8.204;2023-04-30T08:46:06;99558.53;;;18.73;100.00
35023;BME280;21214;44.912;8.204;2023-04-30T08:48:32;99559.38;;;18.80;100.00
35023;BME280;21214;44.912;8.204;2023-04-30T08:51:00;99562.06;;;18.80;100.00
35023;BME280;21214;44.912;8.204;2023-04-30T08:53:26;99567.50;;;18.93;100.00
35023;BME280;21214;44.912;8.204;2023-04-30T08:55:51;99562.59;;;19.03;100.00
35023;BME280;21214;44.912;8.204;2023-04-30T08:58:18;99558.50;;;19.01;100.00
35023;BME280;21214;44.912;8.204;2023-04-30T09:00:44;99574.84;;;18.85;100.00
35023;BME280;21214;44.912;8.204;2023-04-30T09:03:09;99563.72;;;18.81;100.00
35023;BME280;21214;44.912;8.204;2023-04-30T09:05:35;99577.06;;;18.81;100.00
35023;BME280;21214;44.912;8.204;2023-04-30T09:08:01;99571.06;;;18.72;100.00
35023;BME280;21214;44.912;8.204;2023-04-30T09:10:26;99572.31;;;18.76;100.00
35023;BME280;21214;44.912;8.204;2023-04-30T09:15:24;99582.66;;;18.86;100.00
35023;BME280;21214;44.912;8.204;2023-04-30T09:17:50;99570.72;;;18.82;100.00
35023;BME280;21214;44.912;8.204;2023-04-30T09:20:15;99565.41;;;18.89;100.00
35023;BME280;21214;44.912;8.204;2023-04-30T09:22:42;99567.13;;;18.96;100.00
35023;BME280;21214;44.912;8.204;2023-04-30T09:25:08;99573.56;;;19.08;100.00
35023;BME280;21214;44.912;8.204;2023-04-30T09:27:33;99567.41;;;19.14;100.00
35023;BME280;21214;44.912;8.204;2023-04-30T09:29:59;99581.31;;;19.03;100.00
35023;BME280;21214;44.912;8.204;2023-04-30T09:32:25;99576.63;;;19.05;100.00
35023;BME280;21214;44.912;8.204;2023-04-30T09:34:50;99574.81;;;19.12;100.00
35023;BME280;21214;44.912;8.204;2023-04-30T09:37:15;99578.28;;;19.06;100.00
35023;BME280;21214;44.912;8.204;2023-04-30T09:39:51;99573.75;;;19.07;100.00
35023;BME280;21214;44.912;8.204;2023-04-30T09:42:17;99579.72;;;19.02;100.00
35023;BME280;21214;44.912;8.204;2023-04-30T09:44:43;99577.44;;;19.06;100.00
35023;BME280;21214;44.912;8.204;2023-04-30T09:49:40;99574.41;;;19.15;100.00
35023;BME280;21214;44.912;8.204;2023-04-30T09:52:07;99579.38;;;19.18;100.00
35023;BME280;21214;44.912;8.204;2023-04-30T09:54:32;99573.06;;;19.26;100.00
35023;BME280;21214;44.912;8.204;2023-04-30T09:56:58;99579.19;;;19.27;100.00
35023;BME280;21214;44.912;8.204;2023-04-30T09:59:30;99572.59;;;19.22;100.00
35023;BME280;21214;44.912;8.204;2023-04-30T10:02:03;99577.56;;;19.26;100.00
35023;BME280;21214;44.912;8.204;2023-04-30T10:04:35;99573.63;;;19.21;100.00
35023;BME280;21214;44.912;8.204;2023-04-30T10:07:03;99571.34;;;19.18;100.00
35023;BME280;21214;44.912;8.204;2023-04-30T10:09:33;99564.34;;;19.17;100.00
35023;BME280;21214;44.912;8.204;2023-04-30T10:12:00;99570.94;;;19.21;100.00
35023;BME280;21214;44.912;8.204;2023-04-30T10:14:28;99566.88;;;19.26;100.00
35023;BME280;21214;44.912;8.204;2023-04-30T10:16:58;99561.53;;;19.26;100.00
35023;BME280;21214;44.912;8.204;2023-04-30T10:19:29;99558.63;;;19.27;100.00
35023;BME280;21214;44.912;8.204;2023-04-30T10:21:55;99558.47;;;19.35;100.00
35023;BME280;21214;44.912;8.204;2023-04-30T10:24:21;99554.97;;;19.35;100.00
35023;BME280;21214;44.912;8.204;2023-04-30T10:26:46;99553.41;;;19.47;100.00
35023;BME280;21214;44.912;8.204;2023-04-30T10:29:12;99553.41;;;19.47;100.00
35023;BME280;21214;44.912;8.204;2023-04-30T10:31:46;99557.88;;;19.40;100.00
35023;BME280;21214;44.912;8.204;2023-04-30T10:36:42;99551.09;;;19.44;100.00
35023;BME280;21214;44.912;8.204;2023-04-30T10:39:09;99541.06;;;19.52;100.00
35023;BME280;21214;44.912;8.204;2023-04-30T10:41:36;99539.84;;;19.61;100.00
35023;BME280;21214;44.912;8.204;2023-04-30T10:44:01;99541.16;;;19.72;100.00
35023;BME280;21214;44.912;8.204;2023-04-30T10:46:27;99542.22;;;19.84;100.00
35023;BME280;21214;44.912;8.204;2023-04-30T10:48:55;99539.13;;;19.94;100.00
35023;BME280;21214;44.912;8.204;2023-04-30T10:51:22;99541.59;;;19.95;100.00
35023;BME280;21214;44.912;8.204;2023-04-30T10:53:49;99542.84;;;19.99;100.00
35023;BME280;21214;44.912;8.204;2023-04-30T10:56:15;99543.25;;;19.96;99.33
35023;BME280;21214;44.912;8.204;2023-04-30T10:58:53;99534.16;;;19.97;99.96
35023;BME280;21214;44.912;8.204;2023-04-30T11:01:18;99528.44;;;20.00;100.00
35023;BME280;21214;44.912;8.204;2023-04-30T11:06:47;99527.56;;;19.87;99.77
35023;BME280;21214;44.912;8.204;2023-04-30T11:09:13;99527.94;;;19.71;100.00
35023;BME280;21214;44.912;8.204;2023-04-30T11:11:38;99533.31;;;19.71;100.00
35023;BME280;21214;44.912;8.204;2023-04-30T11:14:03;99527.75;;;19.72;100.00
35023;BME280;21214;44.912;8.204;2023-04-30T11:16:29;99533.28;;;19.64;100.00
35023;BME280;21214;44.912;8.204;2023-04-30T11:19:04;99525.47;;;19.69;100.00
35023;BME280;21214;44.912;8.204;2023-04-30T11:21:30;99528.78;;;19.78;100.00
35023;BME280;21214;44.912;8.204;2023-04-30T11:24:01;99525.09;;;19.72;100.00
35023;BME280;21214;44.912;8.204;2023-04-30T11:26:27;99526.72;;;19.73;100.00
35023;BME280;21214;44.912;8.204;2023-04-30T11:28:53;99518.91;;;19.78;100.00
35023;BME280;21214;44.912;8.204;2023-04-30T11:31:19;99515.63;;;19.89;100.00
35023;BME280;21214;44.912;8.204;2023-04-30T11:33:44;99518.91;;;19.91;100.00
35023;BME280;21214;44.912;8.204;2023-04-30T11:36:10;99509.84;;;19.86;100.00
35023;BME280;21214;44.912;8.204;2023-04-30T11:38:38;99506.97;;;19.81;100.00
35023;BME280;21214;44.912;8.204;2023-04-30T11:41:04;99516.00;;;19.80;100.00
35023;BME280;21214;44.912;8.204;2023-04-30T11:43:31;99505.53;;;19.78;100.00
35023;BME280;21214;44.912;8.204;2023-04-30T11:46:00;99504.47;;;19.79;100.00
35023;BME280;21214;44.912;8.204;2023-04-30T11:48:32;99504.91;;;19.76;100.00
35023;BME280;21214;44.912;8.204;2023-04-30T11:51:02;99507.38;;;19.71;100.00
35023;BME280;21214;44.912;8.204;2023-04-30T11:53:27;99499.69;;;19.61;100.00
35023;BME280;21214;44.912;8.204;2023-04-30T11:55:53;99501.13;;;19.57;100.00
35023;BME280;21214;44.912;8.204;2023-04-30T11:58:19;99499.06;;;19.53;100.00
35023;BME280;21214;44.912;8.204;2023-04-30T12:00:45;99492.91;;;19.52;100.00
35023;BME280;21214;44.912;8.204;2023-04-30T12:03:12;99496.63;;;19.58;100.00
35023;BME280;21214;44.912;8.204;2023-04-30T12:05:39;99498.69;;;19.69;100.00
35023;BME280;21214;44.912;8.204;2023-04-30T12:08:05;99493.38;;;19.82;100.00
35023;BME280;21214;44.912;8.204;2023-04-30T12:10:32;99493.78;;;19.92;100.00
35023;BME280;21214;44.912;8.204;2023-04-30T12:12:57;99491.75;;;19.94;100.00
35023;BME280;21214;44.912;8.204;2023-04-30T12:15:24;99484.56;;;20.08;100.00
35023;BME280;21214;44.912;8.204;2023-04-30T12:17:51;99481.66;;;20.10;100.00
35023;BME280;21214;44.912;8.204;2023-04-30T12:20:16;99488.25;;;20.14;100.00
35023;BME280;21214;44.912;8.204;2023-04-30T12:22:42;99484.75;;;20.20;100.00
35023;BME280;21214;44.912;8.204;2023-04-30T12:25:15;99485.56;;;20.27;100.00
35023;BME280;21214;44.912;8.204;2023-04-30T12:27:45;99489.69;;;20.23;100.00
35023;BME280;21214;44.912;8.204;2023-04-30T12:30:12;99478.56;;;20.39;100.00
35023;BME280;21214;44.912;8.204;2023-04-30T12:32:44;99481.88;;;20.54;100.00
35023;BME280;21214;44.912;8.204;2023-04-30T12:35:14;99485.97;;;20.63;100.00
35023;BME280;21214;44.912;8.204;2023-04-30T12:37:46;99487.63;;;20.64;100.00
35023;BME280;21214;44.912;8.204;2023-04-30T12:40:12;99481.63;;;20.69;100.00
35023;BME280;21214;44.912;8.204;2023-04-30T12:42:38;99474.00;;;20.72;100.00
35023;BME280;21214;44.912;8.204;2023-04-30T12:45:04;99476.88;;;20.71;100.00
35023;BME280;21214;44.912;8.204;2023-04-30T12:47:29;99469.84;;;20.76;100.00
35023;BME280;21214;44.912;8.204;2023-04-30T12:49:55;99472.72;;;20.81;100.00
35023;BME280;21214;44.912;8.204;2023-04-30T12:52:24;99468.56;;;20.85;100.00
35023;BME280;21214;44.912;8.204;2023-04-30T12:54:51;99461.59;;;20.84;100.00
35023;BME280;21214;44.912;8.204;2023-04-30T12:57:17;99469.41;;;20.86;100.00
35023;BME280;21214;44.912;8.204;2023-04-30T13:02:14;99460.69;;;21.04;100.00
35023;BME280;21214;44.912;8.204;2023-04-30T13:04:39;99463.13;;;21.12;100.00
35023;BME280;21214;44.912;8.204;2023-04-30T13:07:06;99456.53;;;21.14;100.00
35023;BME280;21214;44.912;8.204;2023-04-30T13:09:32;99462.28;;;21.24;99.08
35023;BME280;21214;44.912;8.204;2023-04-30T13:11:58;99448.84;;;21.31;98.71
35023;BME280;21214;44.912;8.204;2023-04-30T13:14:23;99457.31;;;21.28;98.58
35023;BME280;21214;44.912;8.204;2023-04-30T13:16:49;99452.38;;;21.25;97.94